createdAt,value
2023-01-19T00:28:26.914Z,93.17
2023-01-19T00:58:30.179Z,92.98
2023-01-19T01:28:33.164Z,93.75
2023-01-19T01:58:36.473Z,93.86
2023-01-19T02:28:40.043Z,93.26
2023-01-19T02:58:42.917Z,93.47
2023-01-19T03:28:46.226Z,93.29
2023-01-19T03:58:49.020Z,93.46
2023-01-19T04:28:53.257Z,93.83
2023-01-19T04:58:56.073Z,93.96
2023-01-19T05:28:59.596Z,93.75
2023-01-19T05:59:02.545Z,94.22
2023-01-19T06:29:05.484Z,94.68
2023-01-19T06:59:08.732Z,94.32
2023-01-19T07:29:11.891Z,93.97
2023-01-19T07:59:16.068Z,94.31
2023-01-19T08:29:19.074Z,94.58
2023-01-19T08:59:22.393Z,94.30
2023-01-19T09:29:25.433Z,94.06
2023-01-19T09:59:28.955Z,93.84
2023-01-19T10:29:32.835Z,93.14
2023-01-19T10:59:36.272Z,92.81
2023-01-19T11:29:39.695Z,92.32
2023-01-19T11:59:42.675Z,91.25
2023-01-19T12:29:46.520Z,90.96
2023-01-19T12:59:49.311Z,90.19
2023-01-19T13:29:53.361Z,90.49
2023-01-19T13:59:56.191Z,90.84
2023-01-19T14:29:59.692Z,91.28
2023-01-19T15:00:02.607Z,91.06
2023-01-19T15:30:06.956Z,91.12
2023-01-19T16:00:09.925Z,91.30
2023-01-19T16:30:14.463Z,91.55
2023-01-19T17:00:17.331Z,90.55
2023-01-19T17:30:21.093Z,91.01
2023-01-19T18:00:24.201Z,91.26
2023-01-19T18:30:28.561Z,91.35
2023-01-19T19:00:31.744Z,91.09
2023-01-19T19:30:35.229Z,91.43
2023-01-19T20:00:38.563Z,91.18
2023-01-19T20:30:42.329Z,90.93
2023-01-19T21:00:46.365Z,91.23
2023-01-19T21:30:49.931Z,90.70
2023-01-19T22:00:53.845Z,90.85
2023-01-19T22:30:56.951Z,90.74
2023-01-19T23:01:00.945Z,91.15
2023-01-19T23:31:04.376Z,91.15
